sensor_id;sensor_type;location;lat;lon;timestamp;temperature;humidity
14409;DHT22;7289;50.706;4.992;2023-02-28T00:01:37;-2.30;99.90
14409;DHT22;7289;50.706;4.992;2023-02-28T00:04:06;-2.30;99.90
14409;DHT22;7289;50.706;4.992;2023-02-28T00:06:36;-2.40;99.90
14409;DHT22;7289;50.706;4.992;2023-02-28T00:09:05;-2.50;99.90
14409;DHT22;7289;50.706;4.992;2023-02-28T00:11:34;-2.60;99.90
14409;DHT22;7289;50.706;4.992;2023-02-28T00:14:04;-2.60;99.90
14409;DHT22;7289;50.706;4.992;2023-02-28T00:16:33;-2.60;99.90
14409;DHT22;7289;50.706;4.992;2023-02-28T00:19:01;-2.60;99.90
14409;DHT22;7289;50.706;4.992;2023-02-28T00:21:30;-2.70;99.90
14409;DHT22;7289;50.706;4.992;2023-02-28T00:23:58;-2.70;99.90
14409;DHT22;7289;50.706;4.992;2023-02-28T00:26:28;-2.60;99.90
14409;DHT22;7289;50.706;4.992;2023-02-28T00:28:56;-2.70;99.90
14409;DHT22;7289;50.706;4.992;2023-02-28T00:31:25;-2.70;99.90
14409;DHT22;7289;50.706;4.992;2023-02-28T00:33:54;-2.80;99.90
14409;DHT22;7289;50.706;4.992;2023-02-28T00:36:22;-2.70;99.90
14409;DHT22;7289;50.706;4.992;2023-02-28T00:38:51;-2.80;99.90
14409;DHT22;7289;50.706;4.992;2023-02-28T00:41:19;-2.80;99.90
14409;DHT22;7289;50.706;4.992;2023-02-28T00:43:49;-2.80;99.90
14409;DHT22;7289;50.706;4.992;2023-02-28T00:46:17;-2.70;99.90
14409;DHT22;7289;50.706;4.992;2023-02-28T00:48:45;-2.70;99.90
14409;DHT22;7289;50.706;4.992;2023-02-28T00:51:14;-2.70;99.90
14409;DHT22;7289;50.706;4.992;2023-02-28T00:53:42;-2.70;99.90
14409;DHT22;7289;50.706;4.992;2023-02-28T00:56:11;-2.70;99.90
14409;DHT22;7289;50.706;4.992;2023-02-28T00:58:39;-2.70;99.90
14409;DHT22;7289;50.706;4.992;2023-02-28T01:01:09;-2.80;99.90
14409;DHT22;7289;50.706;4.992;2023-02-28T01:03:37;-2.70;99.90
14409;DHT22;7289;50.706;4.992;2023-02-28T01:06:06;-2.70;99.90
14409;DHT22;7289;50.706;4.992;2023-02-28T01:08:34;-2.80;99.90
14409;DHT22;7289;50.706;4.992;2023-02-28T01:11:08;-2.80;99.90
14409;DHT22;7289;50.706;4.992;2023-02-28T01:13:40;-2.80;99.90
14409;DHT22;7289;50.706;4.992;2023-02-28T01:16:13;-2.80;99.90
14409;DHT22;7289;50.706;4.992;2023-02-28T01:18:42;-2.80;99.90
14409;DHT22;7289;50.706;4.992;2023-02-28T01:21:12;-2.80;99.90
14409;DHT22;7289;50.706;4.992;2023-02-28T01:23:41;-2.90;99.90
14409;DHT22;7289;50.706;4.992;2023-02-28T01:26:12;-2.80;99.90
14409;DHT22;7289;50.706;4.992;2023-02-28T01:28:41;-3.00;99.90
14409;DHT22;7289;50.706;4.992;2023-02-28T01:31:10;-3.10;99.90
14409;DHT22;7289;50.706;4.992;2023-02-28T01:33:40;-3.00;99.90
14409;DHT22;7289;50.706;4.992;2023-02-28T01:36:11;-3.00;99.90
14409;DHT22;7289;50.706;4.992;2023-02-28T01:38:40;-3.10;99.90
14409;DHT22;7289;50.706;4.992;2023-02-28T01:41:14;-3.10;99.90
14409;DHT22;7289;50.706;4.992;2023-02-28T01:43:55;-3.10;99.90
14409;DHT22;7289;50.706;4.992;2023-02-28T01:46:24;-3.10;99.90
14409;DHT22;7289;50.706;4.992;2023-02-28T01:48:58;-3.00;99.90
14409;DHT22;7289;50.706;4.992;2023-02-28T01:51:32;-3.10;99.90
14409;DHT22;7289;50.706;4.992;2023-02-28T01:54:06;-3.00;99.90
14409;DHT22;7289;50.706;4.992;2023-02-28T01:56:44;-3.00;99.90
14409;DHT22;7289;50.706;4.992;2023-02-28T01:59:16;-3.00;99.90
14409;DHT22;7289;50.706;4.992;2023-02-28T02:01:47;-3.00;99.90
14409;DHT22;7289;50.706;4.992;2023-02-28T02:04:17;-2.90;99.90
14409;DHT22;7289;50.706;4.992;2023-02-28T02:06:47;-3.00;99.90
14409;DHT22;7289;50.706;4.992;2023-02-28T02:09:16;-3.00;99.90
14409;DHT22;7289;50.706;4.992;2023-02-28T02:11:46;-3.10;99.90
14409;DHT22;7289;50.706;4.992;2023-02-28T02:14:35;-3.00;99.90
14409;DHT22;7289;50.706;4.992;2023-02-28T02:17:18;-3.00;99.90
14409;DHT22;7289;50.706;4.992;2023-02-28T02:20:30;-3.00;99.90
14409;DHT22;7289;50.706;4.992;2023-02-28T02:23:10;-3.10;99.90
14409;DHT22;7289;50.706;4.992;2023-02-28T02:25:45;-3.10;99.90
14409;DHT22;7289;50.706;4.992;2023-02-28T02:28:40;-3.20;99.90
14409;DHT22;7289;50.706;4.992;2023-02-28T02:31:33;-3.10;99.90
14409;DHT22;7289;50.706;4.992;2023-02-28T02:34:31;-3.00;99.90
14409;DHT22;7289;50.706;4.992;2023-02-28T02:37:11;-2.90;99.90
14409;DHT22;7289;50.706;4.992;2023-02-28T02:39:47;-2.80;99.90
14409;DHT22;7289;50.706;4.992;2023-02-28T02:42:21;-2.90;99.90
14409;DHT22;7289;50.706;4.992;2023-02-28T02:44:56;-3.00;99.90
14409;DHT22;7289;50.706;4.992;2023-02-28T02:47:28;-2.90;99.90
14409;DHT22;7289;50.706;4.992;2023-02-28T02:50:02;-3.10;99.90
14409;DHT22;7289;50.706;4.992;2023-02-28T02:52:36;-3.10;99.90
14409;DHT22;7289;50.706;4.992;2023-02-28T02:55:08;-3.20;99.90
14409;DHT22;7289;50.706;4.992;2023-02-28T02:57:45;-3.20;99.90
14409;DHT22;7289;50.706;4.992;2023-02-28T03:00:16;-3.20;99.90
14409;DHT22;7289;50.706;4.992;2023-02-28T03:02:47;-3.30;99.90
14409;DHT22;7289;50.706;4.992;2023-02-28T03:05:21;-3.30;99.90
14409;DHT22;7289;50.706;4.992;2023-02-28T03:07:51;-3.40;99.90
14409;DHT22;7289;50.706;4.992;2023-02-28T03:10:29;-3.40;99.90
14409;DHT22;7289;50.706;4.992;2023-02-28T03:13:14;-3.40;99.90
14409;DHT22;7289;50.706;4.992;2023-02-28T03:15:54;-3.50;99.90
14409;DHT22;7289;50.706;4.992;2023-02-28T03:18:32;-3.50;99.90
14409;DHT22;7289;50.706;4.992;2023-02-28T03:21:12;-3.50;99.90
14409;DHT22;7289;50.706;4.992;2023-02-28T03:23:50;-3.50;99.90
14409;DHT22;7289;50.706;4.992;2023-02-28T03:26:23;-3.60;99.90
14409;DHT22;7289;50.706;4.992;2023-02-28T03:28:57;-3.60;99.90
14409;DHT22;7289;50.706;4.992;2023-02-28T03:31:33;-3.70;99.90
14409;DHT22;7289;50.706;4.992;2023-02-28T03:34:07;-3.80;99.90
14409;DHT22;7289;50.706;4.992;2023-02-28T03:36:39;-3.80;99.90
14409;DHT22;7289;50.706;4.992;2023-02-28T03:39:15;-3.80;99.90
14409;DHT22;7289;50.706;4.992;2023-02-28T03:41:48;-3.80;99.90
14409;DHT22;7289;50.706;4.992;2023-02-28T03:44:22;-3.80;99.90
14409;DHT22;7289;50.706;4.992;2023-02-28T03:46:56;-3.70;99.90
14409;DHT22;7289;50.706;4.992;2023-02-28T03:49:28;-3.80;99.90
14409;DHT22;7289;50.706;4.992;2023-02-28T03:52:02;-3.80;99.90
14409;DHT22;7289;50.706;4.992;2023-02-28T03:54:38;-3.90;99.90
14409;DHT22;7289;50.706;4.992;2023-02-28T03:57:15;-3.90;99.90
14409;DHT22;7289;50.706;4.992;2023-02-28T03:59:49;-3.90;99.90
14409;DHT22;7289;50.706;4.992;2023-02-28T04:02:20;-3.90;99.90
14409;DHT22;7289;50.706;4.992;2023-02-28T04:04:49;-4.00;99.90
14409;DHT22;7289;50.706;4.992;2023-02-28T04:07:19;-4.00;99.90
14409;DHT22;7289;50.706;4.992;2023-02-28T04:09:47;-4.00;99.90
14409;DHT22;7289;50.706;4.992;2023-02-28T04:12:16;-3.90;99.90
14409;DHT22;7289;50.706;4.992;2023-02-28T04:14:44;-3.90;99.90
14409;DHT22;7289;50.706;4.992;2023-02-28T04:17:12;-3.80;99.90
14409;DHT22;7289;50.706;4.992;2023-02-28T04:19:40;-3.70;99.90
14409;DHT22;7289;50.706;4.992;2023-02-28T04:22:09;-3.70;99.90
14409;DHT22;7289;50.706;4.992;2023-02-28T04:24:39;-3.60;99.90
14409;DHT22;7289;50.706;4.992;2023-02-28T04:27:08;-3.60;99.90
14409;DHT22;7289;50.706;4.992;2023-02-28T04:29:37;-3.80;99.90
14409;DHT22;7289;50.706;4.992;2023-02-28T04:32:05;-3.70;99.90
14409;DHT22;7289;50.706;4.992;2023-02-28T04:34:34;-3.70;99.90
14409;DHT22;7289;50.706;4.992;2023-02-28T04:37:03;-3.70;99.90
14409;DHT22;7289;50.706;4.992;2023-02-28T04:39:42;-3.70;99.90
14409;DHT22;7289;50.706;4.992;2023-02-28T04:42:11;-3.80;99.90
14409;DHT22;7289;50.706;4.992;2023-02-28T04:44:39;-3.80;99.90
14409;DHT22;7289;50.706;4.992;2023-02-28T04:47:08;-3.80;99.90
14409;DHT22;7289;50.706;4.992;2023-02-28T04:49:36;-3.80;99.90
14409;DHT22;7289;50.706;4.992;2023-02-28T04:52:05;-3.80;99.90
14409;DHT22;7289;50.706;4.992;2023-02-28T04:54:34;-3.80;99.90
14409;DHT22;7289;50.706;4.992;2023-02-28T04:57:04;-3.80;99.90
14409;DHT22;7289;50.706;4.992;2023-02-28T04:59:33;-3.80;99.90
14409;DHT22;7289;50.706;4.992;2023-02-28T05:02:01;-3.80;99.90
14409;DHT22;7289;50.706;4.992;2023-02-28T05:04:34;-3.70;99.90
14409;DHT22;7289;50.706;4.992;2023-02-28T05:07:03;-3.80;99.90
14409;DHT22;7289;50.706;4.992;2023-02-28T05:09:31;-3.60;99.90
14409;DHT22;7289;50.706;4.992;2023-02-28T05:12:01;-3.60;99.90
14409;DHT22;7289;50.706;4.992;2023-02-28T05:14:31;-3.50;99.90
14409;DHT22;7289;50.706;4.992;2023-02-28T05:16:59;-3.60;99.90
14409;DHT22;7289;50.706;4.992;2023-02-28T05:19:28;-3.70;99.90
14409;DHT22;7289;50.706;4.992;2023-02-28T05:21:56;-3.60;99.90
14409;DHT22;7289;50.706;4.992;2023-02-28T05:24:25;-3.50;99.90
14409;DHT22;7289;50.706;4.992;2023-02-28T05:26:54;-3.40;99.90
14409;DHT22;7289;50.706;4.992;2023-02-28T05:29:22;-3.40;99.90
14409;DHT22;7289;50.706;4.992;2023-02-28T05:31:52;-3.50;99.90
14409;DHT22;7289;50.706;4.992;2023-02-28T05:34:20;-3.50;99.90
14409;DHT22;7289;50.706;4.992;2023-02-28T05:36:49;-3.60;99.90
14409;DHT22;7289;50.706;4.992;2023-02-28T05:39:17;-3.50;99.90
14409;DHT22;7289;50.706;4.992;2023-02-28T05:41:45;-3.60;99.90
14409;DHT22;7289;50.706;4.992;2023-02-28T05:44:15;-3.70;99.90
14409;DHT22;7289;50.706;4.992;2023-02-28T05:46:43;-3.70;99.90
14409;DHT22;7289;50.706;4.992;2023-02-28T05:49:13;-3.70;99.90
14409;DHT22;7289;50.706;4.992;2023-02-28T05:51:41;-3.70;99.90
14409;DHT22;7289;50.706;4.992;2023-02-28T05:54:10;-3.80;99.90
14409;DHT22;7289;50.706;4.992;2023-02-28T05:56:40;-3.90;99.90
14409;DHT22;7289;50.706;4.992;2023-02-28T05:59:11;-3.90;99.90
14409;DHT22;7289;50.706;4.992;2023-02-28T06:01:41;-3.90;99.90
14409;DHT22;7289;50.706;4.992;2023-02-28T06:04:18;-3.90;99.90
14409;DHT22;7289;50.706;4.992;2023-02-28T06:06:58;-3.90;99.90
14409;DHT22;7289;50.706;4.992;2023-02-28T06:09:26;-4.00;99.90
14409;DHT22;7289;50.706;4.992;2023-02-28T06:11:57;-4.00;99.90
14409;DHT22;7289;50.706;4.992;2023-02-28T06:14:25;-3.90;99.90
14409;DHT22;7289;50.706;4.992;2023-02-28T06:16:54;-3.70;99.90
14409;DHT22;7289;50.706;4.992;2023-02-28T06:19:27;-4.00;99.90
14409;DHT22;7289;50.706;4.992;2023-02-28T06:21:56;-4.00;99.90
14409;DHT22;7289;50.706;4.992;2023-02-28T06:24:26;-4.00;99.90
14409;DHT22;7289;50.706;4.992;2023-02-28T06:26:55;-4.10;99.90
14409;DHT22;7289;50.706;4.992;2023-02-28T06:29:25;-4.20;99.90
14409;DHT22;7289;50.706;4.992;2023-02-28T06:31:54;-4.20;99.90
14409;DHT22;7289;50.706;4.992;2023-02-28T06:34:22;-4.30;99.90
14409;DHT22;7289;50.706;4.992;2023-02-28T06:36:52;-4.30;99.90
14409;DHT22;7289;50.706;4.992;2023-02-28T06:39:21;-4.30;99.90
14409;DHT22;7289;50.706;4.992;2023-02-28T06:41:49;-4.50;99.90
14409;DHT22;7289;50.706;4.992;2023-02-28T06:44:23;-4.50;99.90
14409;DHT22;7289;50.706;4.992;2023-02-28T06:46:52;-4.40;99.90
14409;DHT22;7289;50.706;4.992;2023-02-28T06:49:20;-4.30;99.90
14409;DHT22;7289;50.706;4.992;2023-02-28T06:51:48;-4.20;99.90
14409;DHT22;7289;50.706;4.992;2023-02-28T06:54:18;-4.10;99.90
14409;DHT22;7289;50.706;4.992;2023-02-28T06:56:47;-3.90;99.90
14409;DHT22;7289;50.706;4.992;2023-02-28T06:59:16;-3.80;99.90
14409;DHT22;7289;50.706;4.992;2023-02-28T07:01:44;-3.70;99.90
14409;DHT22;7289;50.706;4.992;2023-02-28T07:04:13;-3.70;99.90
14409;DHT22;7289;50.706;4.992;2023-02-28T07:06:42;-3.60;99.90
14409;DHT22;7289;50.706;4.992;2023-02-28T07:09:11;-3.50;99.90
14409;DHT22;7289;50.706;4.992;2023-02-28T07:11:42;-3.50;99.90
14409;DHT22;7289;50.706;4.992;2023-02-28T07:14:11;-3.40;99.90
14409;DHT22;7289;50.706;4.992;2023-02-28T07:16:39;-3.30;99.90
14409;DHT22;7289;50.706;4.992;2023-02-28T07:19:07;-3.20;99.90
14409;DHT22;7289;50.706;4.992;2023-02-28T07:21:36;-3.00;99.90
14409;DHT22;7289;50.706;4.992;2023-02-28T07:24:05;-3.00;99.90
14409;DHT22;7289;50.706;4.992;2023-02-28T07:26:33;-3.00;99.90
14409;DHT22;7289;50.706;4.992;2023-02-28T07:29:03;-3.00;99.90
14409;DHT22;7289;50.706;4.992;2023-02-28T07:31:31;-2.90;99.90
14409;DHT22;7289;50.706;4.992;2023-02-28T07:34:00;-2.80;99.90
14409;DHT22;7289;50.706;4.992;2023-02-28T07:36:30;-2.80;99.90
14409;DHT22;7289;50.706;4.992;2023-02-28T07:38:58;-2.70;99.90
14409;DHT22;7289;50.706;4.992;2023-02-28T07:41:27;-2.60;99.90
14409;DHT22;7289;50.706;4.992;2023-02-28T07:43:57;-2.50;99.90
14409;DHT22;7289;50.706;4.992;2023-02-28T07:46:28;-2.30;99.90
14409;DHT22;7289;50.706;4.992;2023-02-28T07:49:03;-2.30;99.90
14409;DHT22;7289;50.706;4.992;2023-02-28T07:51:32;-2.30;99.90
14409;DHT22;7289;50.706;4.992;2023-02-28T07:54:00;-2.40;99.90
14409;DHT22;7289;50.706;4.992;2023-02-28T07:56:29;-2.40;99.90
14409;DHT22;7289;50.706;4.992;2023-02-28T07:58:58;-2.30;99.90
14409;DHT22;7289;50.706;4.992;2023-02-28T08:01:27;-2.00;99.90
14409;DHT22;7289;50.706;4.992;2023-02-28T08:03:56;-2.10;99.90
14409;DHT22;7289;50.706;4.992;2023-02-28T08:06:25;-2.00;99.90
14409;DHT22;7289;50.706;4.992;2023-02-28T08:08:54;-2.00;99.90
14409;DHT22;7289;50.706;4.992;2023-02-28T08:11:23;-2.00;99.90
14409;DHT22;7289;50.706;4.992;2023-02-28T08:13:51;-1.90;99.90
14409;DHT22;7289;50.706;4.992;2023-02-28T08:16:20;-1.70;99.90
14409;DHT22;7289;50.706;4.992;2023-02-28T08:18:52;-1.40;99.90
14409;DHT22;7289;50.706;4.992;2023-02-28T08:21:21;-1.40;99.90
14409;DHT22;7289;50.706;4.992;2023-02-28T08:23:50;-1.40;99.90
14409;DHT22;7289;50.706;4.992;2023-02-28T08:26:19;-1.40;99.90
14409;DHT22;7289;50.706;4.992;2023-02-28T08:28:48;-1.40;99.90
14409;DHT22;7289;50.706;4.992;2023-02-28T08:31:17;-1.30;99.90
14409;DHT22;7289;50.706;4.992;2023-02-28T08:33:46;-1.20;99.90
14409;DHT22;7289;50.706;4.992;2023-02-28T08:36:17;-1.10;99.90
14409;DHT22;7289;50.706;4.992;2023-02-28T08:38:45;-1.10;99.90
14409;DHT22;7289;50.706;4.992;2023-02-28T08:41:14;-1.00;99.90
14409;DHT22;7289;50.706;4.992;2023-02-28T08:43:43;-0.90;99.90
14409;DHT22;7289;50.706;4.992;2023-02-28T08:46:12;-0.90;99.90
14409;DHT22;7289;50.706;4.992;2023-02-28T08:48:41;-0.70;99.90
14409;DHT22;7289;50.706;4.992;2023-02-28T08:51:12;-0.70;99.90
14409;DHT22;7289;50.706;4.992;2023-02-28T08:53:42;-0.60;99.90
14409;DHT22;7289;50.706;4.992;2023-02-28T08:56:13;-0.40;99.90
14409;DHT22;7289;50.706;4.992;2023-02-28T08:58:44;-0.40;99.90
14409;DHT22;7289;50.706;4.992;2023-02-28T09:01:14;-0.20;99.90
14409;DHT22;7289;50.706;4.992;2023-02-28T09:03:44;-0.20;99.90
14409;DHT22;7289;50.706;4.992;2023-02-28T09:06:15;-0.20;99.90
14409;DHT22;7289;50.706;4.992;2023-02-28T09:08:45;0.00;99.90
14409;DHT22;7289;50.706;4.992;2023-02-28T09:11:14;0.00;99.90
14409;DHT22;7289;50.706;4.992;2023-02-28T09:13:42;0.10;99.90
14409;DHT22;7289;50.706;4.992;2023-02-28T09:16:12;0.20;99.90
14409;DHT22;7289;50.706;4.992;2023-02-28T09:18:41;0.20;99.90
14409;DHT22;7289;50.706;4.992;2023-02-28T09:21:14;0.30;99.90
14409;DHT22;7289;50.706;4.992;2023-02-28T09:23:45;0.40;99.90
14409;DHT22;7289;50.706;4.992;2023-02-28T09:26:15;0.40;99.90
14409;DHT22;7289;50.706;4.992;2023-02-28T09:28:44;0.60;99.90
14409;DHT22;7289;50.706;4.992;2023-02-28T09:31:14;0.60;99.90
14409;DHT22;7289;50.706;4.992;2023-02-28T09:33:43;0.70;99.90
14409;DHT22;7289;50.706;4.992;2023-02-28T09:36:12;0.90;99.90
14409;DHT22;7289;50.706;4.992;2023-02-28T09:38:40;0.90;99.90
14409;DHT22;7289;50.706;4.992;2023-02-28T09:41:13;0.90;99.90
14409;DHT22;7289;50.706;4.992;2023-02-28T09:43:45;1.00;99.90
14409;DHT22;7289;50.706;4.992;2023-02-28T09:46:29;1.10;99.90
14409;DHT22;7289;50.706;4.992;2023-02-28T09:49:02;1.10;99.90
14409;DHT22;7289;50.706;4.992;2023-02-28T09:51:39;1.30;99.90
14409;DHT22;7289;50.706;4.992;2023-02-28T09:54:14;1.50;99.90
14409;DHT22;7289;50.706;4.992;2023-02-28T09:56:49;1.70;99.90
14409;DHT22;7289;50.706;4.992;2023-02-28T09:59:36;1.70;99.90
14409;DHT22;7289;50.706;4.992;2023-02-28T10:02:17;1.60;99.90
14409;DHT22;7289;50.706;4.992;2023-02-28T10:04:51;1.80;99.90
14409;DHT22;7289;50.706;4.992;2023-02-28T10:07:41;1.70;99.90
14409;DHT22;7289;50.706;4.992;2023-02-28T10:10:19;1.90;99.90
14409;DHT22;7289;50.706;4.992;2023-02-28T10:12:53;1.90;99.90
14409;DHT22;7289;50.706;4.992;2023-02-28T10:15:25;2.00;99.90
14409;DHT22;7289;50.706;4.992;2023-02-28T10:17:58;2.00;99.60
14409;DHT22;7289;50.706;4.992;2023-02-28T10:20:38;2.10;99.70
14409;DHT22;7289;50.706;4.992;2023-02-28T10:23:12;2.20;99.80
14409;DHT22;7289;50.706;4.992;2023-02-28T10:25:50;2.40;99.80
14409;DHT22;7289;50.706;4.992;2023-02-28T10:28:24;2.50;99.90
14409;DHT22;7289;50.706;4.992;2023-02-28T10:30:54;2.70;99.00
14409;DHT22;7289;50.706;4.992;2023-02-28T10:33:24;2.80;98.60
14409;DHT22;7289;50.706;4.992;2023-02-28T10:35:53;2.80;96.50
14409;DHT22;7289;50.706;4.992;2023-02-28T10:38:23;2.80;96.20
14409;DHT22;7289;50.706;4.992;2023-02-28T10:40:52;3.00;97.60
14409;DHT22;7289;50.706;4.992;2023-02-28T10:43:32;3.10;96.70
14409;DHT22;7289;50.706;4.992;2023-02-28T10:46:03;3.20;96.70
14409;DHT22;7289;50.706;4.992;2023-02-28T10:48:37;3.20;96.80
14409;DHT22;7289;50.706;4.992;2023-02-28T10:51:08;3.50;96.60
14409;DHT22;7289;50.706;4.992;2023-02-28T10:53:47;3.70;96.10
14409;DHT22;7289;50.706;4.992;2023-02-28T10:56:27;3.90;94.50
14409;DHT22;7289;50.706;4.992;2023-02-28T10:59:00;4.10;93.40
14409;DHT22;7289;50.706;4.992;2023-02-28T11:01:37;4.10;93.10
14409;DHT22;7289;50.706;4.992;2023-02-28T11:04:20;4.20;93.40
14409;DHT22;7289;50.706;4.992;2023-02-28T11:06:57;4.30;92.20
14409;DHT22;7289;50.706;4.992;2023-02-28T11:09:31;4.50;91.40
14409;DHT22;7289;50.706;4.992;2023-02-28T11:12:02;4.70;91.40
14409;DHT22;7289;50.706;4.992;2023-02-28T11:14:46;4.80;93.00
14409;DHT22;7289;50.706;4.992;2023-02-28T11:17:20;4.90;92.10
14409;DHT22;7289;50.706;4.992;2023-02-28T11:19:51;5.30;90.20
14409;DHT22;7289;50.706;4.992;2023-02-28T11:22:22;5.70;90.10
14409;DHT22;7289;50.706;4.992;2023-02-28T11:24:54;5.90;89.00
14409;DHT22;7289;50.706;4.992;2023-02-28T11:27:47;6.10;90.10
14409;DHT22;7289;50.706;4.992;2023-02-28T11:30:31;6.40;88.70
14409;DHT22;7289;50.706;4.992;2023-02-28T11:33:00;6.40;86.60
14409;DHT22;7289;50.706;4.992;2023-02-28T11:35:31;6.30;87.60
14409;DHT22;7289;50.706;4.992;2023-02-28T11:38:02;6.50;87.50
14409;DHT22;7289;50.706;4.992;2023-02-28T11:40:40;6.70;85.30
14409;DHT22;7289;50.706;4.992;2023-02-28T11:43:23;7.00;84.90
14409;DHT22;7289;50.706;4.992;2023-02-28T11:46:09;6.80;83.80
14409;DHT22;7289;50.706;4.992;2023-02-28T11:48:47;6.80;84.50
14409;DHT22;7289;50.706;4.992;2023-02-28T11:51:23;6.50;83.50
14409;DHT22;7289;50.706;4.992;2023-02-28T11:54:21;6.30;84.00
14409;DHT22;7289;50.706;4.992;2023-02-28T11:56:55;5.80;85.00
14409;DHT22;7289;50.706;4.992;2023-02-28T11:59:41;5.50;84.70
14409;DHT22;7289;50.706;4.992;2023-02-28T12:02:24;5.20;86.50
14409;DHT22;7289;50.706;4.992;2023-02-28T12:05:10;5.20;86.00
14409;DHT22;7289;50.706;4.992;2023-02-28T12:07:50;5.20;86.10
14409;DHT22;7289;50.706;4.992;2023-02-28T12:10:23;5.10;85.40
14409;DHT22;7289;50.706;4.992;2023-02-28T12:13:05;4.70;86.20
14409;DHT22;7289;50.706;4.992;2023-02-28T12:15:55;4.60;87.90
14409;DHT22;7289;50.706;4.992;2023-02-28T12:18:39;4.50;86.80
14409;DHT22;7289;50.706;4.992;2023-02-28T12:21:17;4.60;87.90
14409;DHT22;7289;50.706;4.992;2023-02-28T12:23:56;4.20;86.50
14409;DHT22;7289;50.706;4.992;2023-02-28T12:26:34;4.40;87.60
14409;DHT22;7289;50.706;4.992;2023-02-28T12:29:16;4.50;87.60
14409;DHT22;7289;50.706;4.992;2023-02-28T12:31:52;4.80;87.70
14409;DHT22;7289;50.706;4.992;2023-02-28T12:34:27;5.10;86.50
14409;DHT22;7289;50.706;4.992;2023-02-28T12:36:58;5.30;85.30
14409;DHT22;7289;50.706;4.992;2023-02-28T12:39:32;5.50;83.90
14409;DHT22;7289;50.706;4.992;2023-02-28T12:42:19;5.50;82.70
14409;DHT22;7289;50.706;4.992;2023-02-28T12:44:54;5.40;83.40
14409;DHT22;7289;50.706;4.992;2023-02-28T12:47:24;5.40;82.30
14409;DHT22;7289;50.706;4.992;2023-02-28T12:49:56;5.20;82.20
14409;DHT22;7289;50.706;4.992;2023-02-28T12:52:34;5.30;84.20
14409;DHT22;7289;50.706;4.992;2023-02-28T12:55:13;5.20;81.20
14409;DHT22;7289;50.706;4.992;2023-02-28T12:57:50;5.10;83.10
14409;DHT22;7289;50.706;4.992;2023-02-28T13:00:22;5.30;82.20
14409;DHT22;7289;50.706;4.992;2023-02-28T13:06:06;5.50;81.80
14409;DHT22;7289;50.706;4.992;2023-02-28T13:08:59;5.30;81.70
14409;DHT22;7289;50.706;4.992;2023-02-28T13:11:29;5.30;81.50
14409;DHT22;7289;50.706;4.992;2023-02-28T13:14:02;5.30;81.80
14409;DHT22;7289;50.706;4.992;2023-02-28T13:16:55;5.10;80.50
14409;DHT22;7289;50.706;4.992;2023-02-28T13:19:25;5.00;81.10
14409;DHT22;7289;50.706;4.992;2023-02-28T13:21:57;5.10;80.30
14409;DHT22;7289;50.706;4.992;2023-02-28T13:24:39;5.00;82.70
14409;DHT22;7289;50.706;4.992;2023-02-28T13:27:25;5.00;79.30
14409;DHT22;7289;50.706;4.992;2023-02-28T13:30:00;4.90;82.60
14409;DHT22;7289;50.706;4.992;2023-02-28T13:32:37;5.00;83.50
14409;DHT22;7289;50.706;4.992;2023-02-28T13:38:24;4.90;81.70
14409;DHT22;7289;50.706;4.992;2023-02-28T13:40:52;4.80;81.50
14409;DHT22;7289;50.706;4.992;2023-02-28T13:43:21;4.80;79.00
14409;DHT22;7289;50.706;4.992;2023-02-28T13:46:13;4.70;80.10
14409;DHT22;7289;50.706;4.992;2023-02-28T13:48:41;4.60;81.20
14409;DHT22;7289;50.706;4.992;2023-02-28T13:51:39;4.60;81.60
14409;DHT22;7289;50.706;4.992;2023-02-28T13:54:29;4.70;83.60
14409;DHT22;7289;50.706;4.992;2023-02-28T13:57:17;4.90;83.60
14409;DHT22;7289;50.706;4.992;2023-02-28T13:59:53;5.10;82.70
14409;DHT22;7289;50.706;4.992;2023-02-28T14:02:39;5.30;82.80
14409;DHT22;7289;50.706;4.992;2023-02-28T14:05:14;5.10;80.90
14409;DHT22;7289;50.706;4.992;2023-02-28T14:07:46;4.80;82.60
14409;DHT22;7289;50.706;4.992;2023-02-28T14:10:27;4.90;81.80
14409;DHT22;7289;50.706;4.992;2023-02-28T14:13:02;5.10;81.90
14409;DHT22;7289;50.706;4.992;2023-02-28T14:15:43;5.20;81.60
14409;DHT22;7289;50.706;4.992;2023-02-28T14:18:31;5.10;81.80
14409;DHT22;7289;50.706;4.992;2023-02-28T14:21:16;5.20;81.80
14409;DHT22;7289;50.706;4.992;2023-02-28T14:24:32;5.10;81.80
14409;DHT22;7289;50.706;4.992;2023-02-28T14:27:24;5.20;83.90
14409;DHT22;7289;50.706;4.992;2023-02-28T14:33:09;5.30;81.70
14409;DHT22;7289;50.706;4.992;2023-02-28T14:35:54;5.20;80.50
14409;DHT22;7289;50.706;4.992;2023-02-28T14:38:28;5.20;81.60
14409;DHT22;7289;50.706;4.992;2023-02-28T14:41:02;5.10;81.60
14409;DHT22;7289;50.706;4.992;2023-02-28T14:43:34;5.10;82.80
14409;DHT22;7289;50.706;4.992;2023-02-28T14:46:04;5.10;82.70
14409;DHT22;7289;50.706;4.992;2023-02-28T14:48:35;5.00;82.20
14409;DHT22;7289;50.706;4.992;2023-02-28T14:51:05;5.10;83.00
14409;DHT22;7289;50.706;4.992;2023-02-28T14:53:36;5.00;80.50
14409;DHT22;7289;50.706;4.992;2023-02-28T14:56:06;4.90;81.80
14409;DHT22;7289;50.706;4.992;2023-02-28T14:58:37;4.80;81.00
14409;DHT22;7289;50.706;4.992;2023-02-28T15:01:05;4.70;80.90
14409;DHT22;7289;50.706;4.992;2023-02-28T15:03:35;4.70;82.40
14409;DHT22;7289;50.706;4.992;2023-02-28T15:06:06;4.70;83.30
14409;DHT22;7289;50.706;4.992;2023-02-28T15:08:35;4.80;83.00
14409;DHT22;7289;50.706;4.992;2023-02-28T15:11:05;4.80;83.10
14409;DHT22;7289;50.706;4.992;2023-02-28T15:13:40;4.90;84.20
14409;DHT22;7289;50.706;4.992;2023-02-28T15:16:13;5.00;83.50
14409;DHT22;7289;50.706;4.992;2023-02-28T15:18:46;4.90;80.80
14409;DHT22;7289;50.706;4.992;2023-02-28T15:21:18;4.70;82.40
14409;DHT22;7289;50.706;4.992;2023-02-28T15:23:51;4.70;82.60
14409;DHT22;7289;50.706;4.992;2023-02-28T15:26:25;4.60;81.70
14409;DHT22;7289;50.706;4.992;2023-02-28T15:29:00;4.40;82.80
14409;DHT22;7289;50.706;4.992;2023-02-28T15:31:35;4.30;82.80
14409;DHT22;7289;50.706;4.992;2023-02-28T15:34:28;4.30;84.20
14409;DHT22;7289;50.706;4.992;2023-02-28T15:37:27;4.30;86.20
14409;DHT22;7289;50.706;4.992;2023-02-28T15:40:05;4.40;84.60
14409;DHT22;7289;50.706;4.992;2023-02-28T15:42:33;4.30;84.60
14409;DHT22;7289;50.706;4.992;2023-02-28T15:45:04;4.30;84.90
14409;DHT22;7289;50.706;4.992;2023-02-28T15:47:32;4.30;85.40
14409;DHT22;7289;50.706;4.992;2023-02-28T15:50:03;4.30;85.00
14409;DHT22;7289;50.706;4.992;2023-02-28T15:52:38;4.40;86.40
14409;DHT22;7289;50.706;4.992;2023-02-28T15:55:09;4.30;85.90
14409;DHT22;7289;50.706;4.992;2023-02-28T15:57:40;4.10;84.10
14409;DHT22;7289;50.706;4.992;2023-02-28T16:00:13;4.00;84.30
14409;DHT22;7289;50.706;4.992;2023-02-28T16:02:44;4.10;85.50
14409;DHT22;7289;50.706;4.992;2023-02-28T16:05:23;4.00;85.00
14409;DHT22;7289;50.706;4.992;2023-02-28T16:07:56;4.00;87.00
14409;DHT22;7289;50.706;4.992;2023-02-28T16:10:26;4.00;86.50
14409;DHT22;7289;50.706;4.992;2023-02-28T16:12:56;3.90;86.00
14409;DHT22;7289;50.706;4.992;2023-02-28T16:15:28;3.90;86.30
14409;DHT22;7289;50.706;4.992;2023-02-28T16:17:57;3.90;87.30
14409;DHT22;7289;50.706;4.992;2023-02-28T16:20:27;3.80;86.40
14409;DHT22;7289;50.706;4.992;2023-02-28T16:22:56;3.90;87.80
14409;DHT22;7289;50.706;4.992;2023-02-28T16:25:34;3.70;87.40
14409;DHT22;7289;50.706;4.992;2023-02-28T16:28:03;3.70;88.90
14409;DHT22;7289;50.706;4.992;2023-02-28T16:30:33;3.60;88.70
14409;DHT22;7289;50.706;4.992;2023-02-28T16:33:01;3.40;88.10
14409;DHT22;7289;50.706;4.992;2023-02-28T16:35:30;3.40;87.70
14409;DHT22;7289;50.706;4.992;2023-02-28T16:37:58;3.50;87.50
14409;DHT22;7289;50.706;4.992;2023-02-28T16:40:27;3.60;88.60